sensor_id;sensor_type;location;lat;lon;timestamp;P1;durP1;ratioP1;P2;durP2;ratioP2
59468;SDS011;45277;52.768;18.262;2023-05-29T00:00:16;11.30;;;6.15;;
59468;SDS011;45277;52.768;18.262;2023-05-29T00:02:08;10.73;;;5.70;;
59468;SDS011;45277;52.768;18.262;2023-05-29T00:03:39;13.65;;;5.50;;
59468;SDS011;45277;52.768;18.262;2023-05-29T00:05:11;13.88;;;6.40;;
59468;SDS011;45277;52.768;18.262;2023-05-29T00:06:43;10.98;;;5.20;;
59468;SDS011;45277;52.768;18.262;2023-05-29T00:08:15;10.88;;;5.70;;
59468;SDS011;45277;52.768;18.262;2023-05-29T00:09:46;10.43;;;5.70;;
59468;SDS011;45277;52.768;18.262;2023-05-29T00:11:17;11.05;;;6.00;;
59468;SDS011;45277;52.768;18.262;2023-05-29T00:12:49;14.73;;;5.78;;
59468;SDS011;45277;52.768;18.262;2023-05-29T00:14:21;12.20;;;6.13;;
59468;SDS011;45277;52.768;18.262;2023-05-29T00:15:54;11.32;;;6.05;;
59468;SDS011;45277;52.768;18.262;2023-05-29T00:17:26;16.77;;;6.80;;
59468;SDS011;45277;52.768;18.262;2023-05-29T00:18:58;11.50;;;6.35;;
59468;SDS011;45277;52.768;18.262;2023-05-29T00:20:30;13.95;;;6.65;;
59468;SDS011;45277;52.768;18.262;2023-05-29T00:22:04;15.77;;;6.22;;
59468;SDS011;45277;52.768;18.262;2023-05-29T00:23:36;16.40;;;6.93;;
59468;SDS011;45277;52.768;18.262;2023-05-29T00:25:07;12.70;;;6.53;;
59468;SDS011;45277;52.768;18.262;2023-05-29T00:26:39;13.30;;;6.13;;
59468;SDS011;45277;52.768;18.262;2023-05-29T00:28:11;13.65;;;6.20;;
59468;SDS011;45277;52.768;18.262;2023-05-29T00:29:43;13.73;;;6.95;;
59468;SDS011;45277;52.768;18.262;2023-05-29T00:31:14;12.55;;;6.88;;
59468;SDS011;45277;52.768;18.262;2023-05-29T00:32:46;16.05;;;7.22;;
59468;SDS011;45277;52.768;18.262;2023-05-29T00:34:17;15.13;;;6.32;;
59468;SDS011;45277;52.768;18.262;2023-05-29T00:35:48;17.42;;;6.70;;
59468;SDS011;45277;52.768;18.262;2023-05-29T00:37:20;15.05;;;6.93;;
59468;SDS011;45277;52.768;18.262;2023-05-29T00:38:52;14.43;;;7.28;;
59468;SDS011;45277;52.768;18.262;2023-05-29T00:40:23;13.80;;;6.93;;
59468;SDS011;45277;52.768;18.262;2023-05-29T00:41:56;15.00;;;6.97;;
59468;SDS011;45277;52.768;18.262;2023-05-29T00:43:27;14.60;;;7.35;;
59468;SDS011;45277;52.768;18.262;2023-05-29T00:44:58;14.35;;;6.78;;
59468;SDS011;45277;52.768;18.262;2023-05-29T00:46:31;11.82;;;7.15;;
59468;SDS011;45277;52.768;18.262;2023-05-29T00:48:03;15.45;;;7.03;;
59468;SDS011;45277;52.768;18.262;2023-05-29T00:49:36;14.73;;;7.50;;
59468;SDS011;45277;52.768;18.262;2023-05-29T00:51:09;14.10;;;7.35;;
59468;SDS011;45277;52.768;18.262;2023-05-29T00:52:43;14.73;;;7.88;;
59468;SDS011;45277;52.768;18.262;2023-05-29T00:54:17;15.60;;;8.15;;
59468;SDS011;45277;52.768;18.262;2023-05-29T00:55:55;13.95;;;7.38;;
59468;SDS011;45277;52.768;18.262;2023-05-29T00:57:28;18.88;;;8.63;;
59468;SDS011;45277;52.768;18.262;2023-05-29T00:59:00;16.70;;;7.90;;
59468;SDS011;45277;52.768;18.262;2023-05-29T01:00:32;17.27;;;7.85;;
59468;SDS011;45277;52.768;18.262;2023-05-29T01:02:05;18.60;;;7.72;;
59468;SDS011;45277;52.768;18.262;2023-05-29T01:03:37;17.40;;;8.70;;
59468;SDS011;45277;52.768;18.262;2023-05-29T01:05:08;19.48;;;7.93;;
59468;SDS011;45277;52.768;18.262;2023-05-29T01:06:40;17.30;;;7.78;;
59468;SDS011;45277;52.768;18.262;2023-05-29T01:08:11;15.98;;;8.35;;
59468;SDS011;45277;52.768;18.262;2023-05-29T01:09:43;16.80;;;7.68;;
59468;SDS011;45277;52.768;18.262;2023-05-29T01:11:20;17.33;;;8.55;;
59468;SDS011;45277;52.768;18.262;2023-05-29T01:13:40;15.65;;;8.18;;
59468;SDS011;45277;52.768;18.262;2023-05-29T01:16:38;16.77;;;7.78;;
59468;SDS011;45277;52.768;18.262;2023-05-29T01:20:09;25.75;;;8.70;;
59468;SDS011;45277;52.768;18.262;2023-05-29T01:22:13;15.70;;;8.30;;
59468;SDS011;45277;52.768;18.262;2023-05-29T01:28:09;16.25;;;8.50;;
59468;SDS011;45277;52.768;18.262;2023-05-29T01:29:43;22.98;;;8.38;;
59468;SDS011;45277;52.768;18.262;2023-05-29T01:31:17;17.77;;;8.15;;
59468;SDS011;45277;52.768;18.262;2023-05-29T01:32:52;17.30;;;8.77;;
59468;SDS011;45277;52.768;18.262;2023-05-29T01:34:24;20.05;;;8.02;;
59468;SDS011;45277;52.768;18.262;2023-05-29T01:35:55;16.63;;;8.10;;
59468;SDS011;45277;52.768;18.262;2023-05-29T01:37:27;15.13;;;8.50;;
59468;SDS011;45277;52.768;18.262;2023-05-29T01:38:59;26.05;;;8.50;;
59468;SDS011;45277;52.768;18.262;2023-05-29T01:40:31;16.70;;;8.48;;
59468;SDS011;45277;52.768;18.262;2023-05-29T01:42:02;15.52;;;7.60;;
59468;SDS011;45277;52.768;18.262;2023-05-29T01:43:35;15.15;;;7.50;;
59468;SDS011;45277;52.768;18.262;2023-05-29T01:45:07;18.35;;;7.75;;
59468;SDS011;45277;52.768;18.262;2023-05-29T01:46:39;12.48;;;6.93;;
59468;SDS011;45277;52.768;18.262;2023-05-29T01:48:12;14.65;;;7.05;;
59468;SDS011;45277;52.768;18.262;2023-05-29T01:49:44;14.75;;;7.03;;
59468;SDS011;45277;52.768;18.262;2023-05-29T01:51:17;23.48;;;7.60;;
59468;SDS011;45277;52.768;18.262;2023-05-29T01:52:49;12.10;;;6.60;;
59468;SDS011;45277;52.768;18.262;2023-05-29T01:54:20;12.82;;;6.32;;
59468;SDS011;45277;52.768;18.262;2023-05-29T01:55:52;12.68;;;6.15;;
59468;SDS011;45277;52.768;18.262;2023-05-29T01:57:24;10.95;;;5.53;;
59468;SDS011;45277;52.768;18.262;2023-05-29T01:58:57;12.48;;;5.97;;
59468;SDS011;45277;52.768;18.262;2023-05-29T02:00:31;14.70;;;6.03;;
59468;SDS011;45277;52.768;18.262;2023-05-29T02:02:08;11.98;;;5.10;;
59468;SDS011;45277;52.768;18.262;2023-05-29T02:03:42;10.77;;;5.80;;
59468;SDS011;45277;52.768;18.262;2023-05-29T02:05:13;13.18;;;6.22;;
59468;SDS011;45277;52.768;18.262;2023-05-29T02:06:45;11.45;;;6.18;;
59468;SDS011;45277;52.768;18.262;2023-05-29T02:08:17;13.40;;;6.47;;
59468;SDS011;45277;52.768;18.262;2023-05-29T02:09:48;9.20;;;5.53;;
59468;SDS011;45277;52.768;18.262;2023-05-29T02:11:19;9.70;;;6.15;;
59468;SDS011;45277;52.768;18.262;2023-05-29T02:12:51;13.77;;;6.05;;
59468;SDS011;45277;52.768;18.262;2023-05-29T02:14:22;9.55;;;5.72;;
59468;SDS011;45277;52.768;18.262;2023-05-29T02:15:56;13.05;;;5.60;;
59468;SDS011;45277;52.768;18.262;2023-05-29T02:17:28;10.98;;;6.30;;
59468;SDS011;45277;52.768;18.262;2023-05-29T02:19:00;10.48;;;5.53;;
59468;SDS011;45277;52.768;18.262;2023-05-29T02:20:32;9.60;;;6.03;;
59468;SDS011;45277;52.768;18.262;2023-05-29T02:22:03;13.10;;;6.20;;
59468;SDS011;45277;52.768;18.262;2023-05-29T02:23:36;9.60;;;5.95;;
59468;SDS011;45277;52.768;18.262;2023-05-29T02:25:07;11.43;;;6.22;;
59468;SDS011;45277;52.768;18.262;2023-05-29T02:26:39;11.00;;;6.40;;
59468;SDS011;45277;52.768;18.262;2023-05-29T02:28:10;11.32;;;6.07;;
59468;SDS011;45277;52.768;18.262;2023-05-29T02:29:42;10.27;;;6.55;;
59468;SDS011;45277;52.768;18.262;2023-05-29T02:31:14;9.38;;;5.68;;
59468;SDS011;45277;52.768;18.262;2023-05-29T02:32:46;14.68;;;6.43;;
59468;SDS011;45277;52.768;18.262;2023-05-29T02:34:17;11.30;;;5.63;;
59468;SDS011;45277;52.768;18.262;2023-05-29T02:35:49;13.43;;;7.18;;
59468;SDS011;45277;52.768;18.262;2023-05-29T02:37:20;15.63;;;6.07;;
59468;SDS011;45277;52.768;18.262;2023-05-29T02:38:55;10.38;;;5.97;;
59468;SDS011;45277;52.768;18.262;2023-05-29T02:40:27;13.30;;;6.15;;
59468;SDS011;45277;52.768;18.262;2023-05-29T02:41:58;15.55;;;6.25;;
59468;SDS011;45277;52.768;18.262;2023-05-29T02:43:30;12.10;;;5.95;;
59468;SDS011;45277;52.768;18.262;2023-05-29T02:45:01;15.68;;;6.53;;
59468;SDS011;45277;52.768;18.262;2023-05-29T02:46:33;10.02;;;6.28;;
59468;SDS011;45277;52.768;18.262;2023-05-29T02:48:05;12.43;;;6.40;;
59468;SDS011;45277;52.768;18.262;2023-05-29T02:49:37;13.70;;;6.63;;
59468;SDS011;45277;52.768;18.262;2023-05-29T02:51:08;15.20;;;6.60;;
59468;SDS011;45277;52.768;18.262;2023-05-29T02:52:40;12.93;;;6.93;;
59468;SDS011;45277;52.768;18.262;2023-05-29T02:54:12;14.10;;;6.80;;
59468;SDS011;45277;52.768;18.262;2023-05-29T02:55:44;14.55;;;6.60;;
59468;SDS011;45277;52.768;18.262;2023-05-29T02:57:15;11.88;;;6.43;;
59468;SDS011;45277;52.768;18.262;2023-05-29T02:58:47;16.70;;;6.80;;
59468;SDS011;45277;52.768;18.262;2023-05-29T03:00:18;15.80;;;6.68;;
59468;SDS011;45277;52.768;18.262;2023-05-29T03:01:51;11.43;;;6.80;;
59468;SDS011;45277;52.768;18.262;2023-05-29T03:03:23;17.67;;;7.28;;
59468;SDS011;45277;52.768;18.262;2023-05-29T03:04:54;13.25;;;6.97;;
59468;SDS011;45277;52.768;18.262;2023-05-29T03:06:26;14.38;;;6.93;;
59468;SDS011;45277;52.768;18.262;2023-05-29T03:07:58;16.63;;;6.75;;
59468;SDS011;45277;52.768;18.262;2023-05-29T03:09:29;19.17;;;7.13;;
59468;SDS011;45277;52.768;18.262;2023-05-29T03:11:00;13.18;;;7.25;;
59468;SDS011;45277;52.768;18.262;2023-05-29T03:12:32;17.50;;;7.53;;
59468;SDS011;45277;52.768;18.262;2023-05-29T03:14:03;14.85;;;7.28;;
59468;SDS011;45277;52.768;18.262;2023-05-29T03:15:35;14.15;;;7.80;;
59468;SDS011;45277;52.768;18.262;2023-05-29T03:17:07;17.35;;;8.25;;
59468;SDS011;45277;52.768;18.262;2023-05-29T03:18:38;16.77;;;8.20;;
59468;SDS011;45277;52.768;18.262;2023-05-29T03:20:10;16.90;;;7.45;;
59468;SDS011;45277;52.768;18.262;2023-05-29T03:21:42;18.83;;;8.07;;
59468;SDS011;45277;52.768;18.262;2023-05-29T03:23:13;17.10;;;7.50;;
59468;SDS011;45277;52.768;18.262;2023-05-29T03:24:44;18.15;;;8.13;;
59468;SDS011;45277;52.768;18.262;2023-05-29T03:26:16;13.20;;;8.00;;
59468;SDS011;45277;52.768;18.262;2023-05-29T03:27:47;15.18;;;7.00;;
59468;SDS011;45277;52.768;18.262;2023-05-29T03:29:19;16.92;;;7.60;;
59468;SDS011;45277;52.768;18.262;2023-05-29T03:30:50;12.57;;;7.00;;
59468;SDS011;45277;52.768;18.262;2023-05-29T03:32:22;11.85;;;7.10;;
59468;SDS011;45277;52.768;18.262;2023-05-29T03:33:53;12.70;;;6.75;;
59468;SDS011;45277;52.768;18.262;2023-05-29T03:35:25;15.05;;;6.97;;
59468;SDS011;45277;52.768;18.262;2023-05-29T03:36:56;15.40;;;8.02;;
59468;SDS011;45277;52.768;18.262;2023-05-29T03:38:27;15.90;;;6.60;;
59468;SDS011;45277;52.768;18.262;2023-05-29T03:39:59;10.45;;;6.38;;
59468;SDS011;45277;52.768;18.262;2023-05-29T03:41:30;12.48;;;6.30;;
59468;SDS011;45277;52.768;18.262;2023-05-29T03:43:02;15.18;;;6.72;;
59468;SDS011;45277;52.768;18.262;2023-05-29T03:44:34;14.10;;;6.85;;
59468;SDS011;45277;52.768;18.262;2023-05-29T03:46:05;14.20;;;6.97;;
59468;SDS011;45277;52.768;18.262;2023-05-29T03:47:36;18.55;;;7.00;;
59468;SDS011;45277;52.768;18.262;2023-05-29T03:49:08;18.80;;;7.40;;
59468;SDS011;45277;52.768;18.262;2023-05-29T03:50:39;16.40;;;7.55;;
59468;SDS011;45277;52.768;18.262;2023-05-29T03:52:11;13.95;;;6.65;;
59468;SDS011;45277;52.768;18.262;2023-05-29T03:53:43;14.25;;;6.63;;
59468;SDS011;45277;52.768;18.262;2023-05-29T03:55:14;14.68;;;7.13;;
59468;SDS011;45277;52.768;18.262;2023-05-29T03:56:45;17.85;;;8.27;;
59468;SDS011;45277;52.768;18.262;2023-05-29T03:58:17;15.98;;;7.03;;
59468;SDS011;45277;52.768;18.262;2023-05-29T03:59:48;12.93;;;7.05;;
59468;SDS011;45277;52.768;18.262;2023-05-29T04:01:19;15.38;;;7.03;;
59468;SDS011;45277;52.768;18.262;2023-05-29T04:02:51;13.18;;;7.07;;
59468;SDS011;45277;52.768;18.262;2023-05-29T04:04:23;16.90;;;6.90;;
59468;SDS011;45277;52.768;18.262;2023-05-29T04:05:54;18.35;;;7.97;;
59468;SDS011;45277;52.768;18.262;2023-05-29T04:07:26;10.68;;;7.35;;
59468;SDS011;45277;52.768;18.262;2023-05-29T04:08:57;18.58;;;7.13;;
59468;SDS011;45277;52.768;18.262;2023-05-29T04:10:29;13.07;;;6.57;;
59468;SDS011;45277;52.768;18.262;2023-05-29T04:12:04;16.90;;;7.35;;
59468;SDS011;45277;52.768;18.262;2023-05-29T04:13:36;13.68;;;6.63;;
59468;SDS011;45277;52.768;18.262;2023-05-29T04:15:07;13.27;;;7.40;;
59468;SDS011;45277;52.768;18.262;2023-05-29T04:16:39;14.85;;;7.00;;
59468;SDS011;45277;52.768;18.262;2023-05-29T04:18:11;14.48;;;7.35;;
59468;SDS011;45277;52.768;18.262;2023-05-29T04:19:42;14.65;;;7.30;;
59468;SDS011;45277;52.768;18.262;2023-05-29T04:21:14;15.60;;;7.40;;
59468;SDS011;45277;52.768;18.262;2023-05-29T04:22:45;15.40;;;7.47;;
59468;SDS011;45277;52.768;18.262;2023-05-29T04:24:17;14.57;;;7.32;;
59468;SDS011;45277;52.768;18.262;2023-05-29T04:25:48;14.65;;;8.07;;
59468;SDS011;45277;52.768;18.262;2023-05-29T04:27:23;15.20;;;7.43;;
59468;SDS011;45277;52.768;18.262;2023-05-29T04:28:54;15.38;;;7.68;;
59468;SDS011;45277;52.768;18.262;2023-05-29T04:30:29;15.30;;;7.70;;
59468;SDS011;45277;52.768;18.262;2023-05-29T04:32:03;15.32;;;7.80;;
59468;SDS011;45277;52.768;18.262;2023-05-29T04:33:35;18.17;;;7.45;;
59468;SDS011;45277;52.768;18.262;2023-05-29T04:35:08;13.85;;;7.25;;
59468;SDS011;45277;52.768;18.262;2023-05-29T04:36:39;12.82;;;7.10;;
59468;SDS011;45277;52.768;18.262;2023-05-29T04:38:11;17.00;;;6.90;;
59468;SDS011;45277;52.768;18.262;2023-05-29T04:39:43;17.50;;;6.70;;
59468;SDS011;45277;52.768;18.262;2023-05-29T04:41:15;15.32;;;6.88;;
59468;SDS011;45277;52.768;18.262;2023-05-29T04:42:46;10.63;;;6.57;;
59468;SDS011;45277;52.768;18.262;2023-05-29T04:44:18;10.73;;;6.30;;
59468;SDS011;45277;52.768;18.262;2023-05-29T04:45:50;11.55;;;6.72;;
59468;SDS011;45277;52.768;18.262;2023-05-29T04:47:21;17.67;;;8.30;;
59468;SDS011;45277;52.768;18.262;2023-05-29T04:48:53;13.98;;;7.95;;
59468;SDS011;45277;52.768;18.262;2023-05-29T04:50:24;17.58;;;8.90;;
59468;SDS011;45277;52.768;18.262;2023-05-29T04:51:58;10.35;;;6.55;;
59468;SDS011;45277;52.768;18.262;2023-05-29T04:53:31;13.82;;;6.57;;
59468;SDS011;45277;52.768;18.262;2023-05-29T04:55:03;6.95;;;4.82;;
59468;SDS011;45277;52.768;18.262;2023-05-29T04:56:35;8.43;;;5.57;;
59468;SDS011;45277;52.768;18.262;2023-05-29T04:58:08;5.40;;;3.92;;
59468;SDS011;45277;52.768;18.262;2023-05-29T04:59:39;7.75;;;4.65;;
59468;SDS011;45277;52.768;18.262;2023-05-29T05:01:11;8.77;;;4.85;;
59468;SDS011;45277;52.768;18.262;2023-05-29T05:02:45;12.70;;;5.07;;
59468;SDS011;45277;52.768;18.262;2023-05-29T05:04:17;11.00;;;4.43;;
59468;SDS011;45277;52.768;18.262;2023-05-29T05:05:49;9.98;;;4.90;;
59468;SDS011;45277;52.768;18.262;2023-05-29T05:07:20;8.82;;;5.22;;
59468;SDS011;45277;52.768;18.262;2023-05-29T05:08:52;12.18;;;5.13;;
59468;SDS011;45277;52.768;18.262;2023-05-29T05:10:24;9.73;;;4.85;;
59468;SDS011;45277;52.768;18.262;2023-05-29T05:11:56;8.93;;;5.20;;
59468;SDS011;45277;52.768;18.262;2023-05-29T05:13:27;10.38;;;5.05;;
59468;SDS011;45277;52.768;18.262;2023-05-29T05:14:58;8.95;;;5.28;;
59468;SDS011;45277;52.768;18.262;2023-05-29T05:16:30;11.35;;;5.03;;
59468;SDS011;45277;52.768;18.262;2023-05-29T05:18:03;12.27;;;4.68;;
59468;SDS011;45277;52.768;18.262;2023-05-29T05:19:35;9.48;;;4.40;;
59468;SDS011;45277;52.768;18.262;2023-05-29T05:21:07;8.00;;;5.03;;
59468;SDS011;45277;52.768;18.262;2023-05-29T05:22:38;8.20;;;4.97;;
59468;SDS011;45277;52.768;18.262;2023-05-29T05:24:09;11.05;;;5.60;;
59468;SDS011;45277;52.768;18.262;2023-05-29T05:25:41;13.43;;;6.15;;
59468;SDS011;45277;52.768;18.262;2023-05-29T05:27:13;10.25;;;5.13;;
59468;SDS011;45277;52.768;18.262;2023-05-29T05:28:44;9.32;;;5.00;;
59468;SDS011;45277;52.768;18.262;2023-05-29T05:30:16;6.82;;;3.78;;
59468;SDS011;45277;52.768;18.262;2023-05-29T05:31:48;11.48;;;5.68;;
59468;SDS011;45277;52.768;18.262;2023-05-29T05:33:19;9.73;;;4.13;;
59468;SDS011;45277;52.768;18.262;2023-05-29T05:34:51;8.10;;;4.60;;
59468;SDS011;45277;52.768;18.262;2023-05-29T05:36:22;8.48;;;4.70;;
59468;SDS011;45277;52.768;18.262;2023-05-29T05:37:54;11.70;;;5.60;;
59468;SDS011;45277;52.768;18.262;2023-05-29T05:39:28;8.55;;;4.80;;
59468;SDS011;45277;52.768;18.262;2023-05-29T05:41:00;8.70;;;4.82;;
59468;SDS011;45277;52.768;18.262;2023-05-29T05:42:32;11.70;;;5.68;;
59468;SDS011;45277;52.768;18.262;2023-05-29T05:44:04;9.90;;;5.40;;
59468;SDS011;45277;52.768;18.262;2023-05-29T05:45:35;10.95;;;5.88;;
59468;SDS011;45277;52.768;18.262;2023-05-29T05:47:08;11.43;;;5.55;;
59468;SDS011;45277;52.768;18.262;2023-05-29T05:48:40;11.35;;;6.50;;
59468;SDS011;45277;52.768;18.262;2023-05-29T05:50:11;11.88;;;6.43;;
59468;SDS011;45277;52.768;18.262;2023-05-29T05:51:43;12.32;;;6.68;;
59468;SDS011;45277;52.768;18.262;2023-05-29T05:53:14;12.13;;;6.28;;
59468;SDS011;45277;52.768;18.262;2023-05-29T05:54:47;12.68;;;7.18;;
59468;SDS011;45277;52.768;18.262;2023-05-29T05:56:18;11.45;;;6.85;;
59468;SDS011;45277;52.768;18.262;2023-05-29T05:57:50;12.88;;;6.00;;
59468;SDS011;45277;52.768;18.262;2023-05-29T05:59:21;12.50;;;6.30;;
59468;SDS011;45277;52.768;18.262;2023-05-29T06:00:53;12.02;;;6.10;;
59468;SDS011;45277;52.768;18.262;2023-05-29T06:02:25;11.00;;;5.45;;
59468;SDS011;45277;52.768;18.262;2023-05-29T06:03:56;9.18;;;4.97;;
59468;SDS011;45277;52.768;18.262;2023-05-29T06:05:28;9.50;;;4.25;;
59468;SDS011;45277;52.768;18.262;2023-05-29T06:07:00;7.70;;;4.55;;
59468;SDS011;45277;52.768;18.262;2023-05-29T06:08:31;12.52;;;3.95;;
59468;SDS011;45277;52.768;18.262;2023-05-29T06:10:03;10.05;;;3.85;;
59468;SDS011;45277;52.768;18.262;2023-05-29T06:11:35;9.20;;;3.92;;
59468;SDS011;45277;52.768;18.262;2023-05-29T06:13:07;6.50;;;3.85;;
59468;SDS011;45277;52.768;18.262;2023-05-29T06:14:39;9.73;;;4.57;;
59468;SDS011;45277;52.768;18.262;2023-05-29T06:16:10;11.52;;;4.47;;
59468;SDS011;45277;52.768;18.262;2023-05-29T06:17:42;11.00;;;4.35;;
59468;SDS011;45277;52.768;18.262;2023-05-29T06:19:13;8.23;;;3.70;;
59468;SDS011;45277;52.768;18.262;2023-05-29T06:20:46;10.35;;;4.25;;
59468;SDS011;45277;52.768;18.262;2023-05-29T06:22:18;8.55;;;4.03;;
59468;SDS011;45277;52.768;18.262;2023-05-29T06:23:49;7.65;;;4.43;;
59468;SDS011;45277;52.768;18.262;2023-05-29T06:25:21;9.75;;;4.30;;
59468;SDS011;45277;52.768;18.262;2023-05-29T06:26:52;7.53;;;3.97;;
59468;SDS011;45277;52.768;18.262;2023-05-29T06:28:24;9.30;;;3.47;;
59468;SDS011;45277;52.768;18.262;2023-05-29T06:29:55;6.22;;;3.58;;
59468;SDS011;45277;52.768;18.262;2023-05-29T06:31:27;9.10;;;3.80;;
59468;SDS011;45277;52.768;18.262;2023-05-29T06:32:59;7.82;;;4.05;;
59468;SDS011;45277;52.768;18.262;2023-05-29T06:34:31;5.93;;;3.60;;
59468;SDS011;45277;52.768;18.262;2023-05-29T06:36:02;23.67;;;4.55;;
59468;SDS011;45277;52.768;18.262;2023-05-29T06:37:34;6.78;;;3.60;;
59468;SDS011;45277;52.768;18.262;2023-05-29T06:39:05;6.60;;;3.42;;
59468;SDS011;45277;52.768;18.262;2023-05-29T06:40:36;19.77;;;4.15;;
59468;SDS011;45277;52.768;18.262;2023-05-29T06:42:08;11.32;;;4.53;;
59468;SDS011;45277;52.768;18.262;2023-05-29T06:43:40;7.57;;;3.47;;
59468;SDS011;45277;52.768;18.262;2023-05-29T06:45:11;5.90;;;3.35;;
59468;SDS011;45277;52.768;18.262;2023-05-29T06:46:45;12.27;;;3.78;;
59468;SDS011;45277;52.768;18.262;2023-05-29T06:48:17;9.07;;;3.72;;
59468;SDS011;45277;52.768;18.262;2023-05-29T06:49:48;10.63;;;3.88;;
59468;SDS011;45277;52.768;18.262;2023-05-29T06:51:20;5.47;;;2.88;;
59468;SDS011;45277;52.768;18.262;2023-05-29T06:52:51;10.18;;;4.18;;
59468;SDS011;45277;52.768;18.262;2023-05-29T06:54:23;9.52;;;3.55;;
59468;SDS011;45277;52.768;18.262;2023-05-29T06:55:54;10.38;;;3.70;;
59468;SDS011;45277;52.768;18.262;2023-05-29T06:57:26;9.10;;;3.53;;
59468;SDS011;45277;52.768;18.262;2023-05-29T06:58:57;19.27;;;4.00;;
59468;SDS011;45277;52.768;18.262;2023-05-29T07:00:28;8.05;;;3.40;;
59468;SDS011;45277;52.768;18.262;2023-05-29T07:02:00;6.20;;;3.10;;
59468;SDS011;45277;52.768;18.262;2023-05-29T07:03:31;5.57;;;2.92;;
59468;SDS011;45277;52.768;18.262;2023-05-29T07:05:03;7.00;;;3.22;;
59468;SDS011;45277;52.768;18.262;2023-05-29T07:06:35;5.63;;;2.97;;
59468;SDS011;45277;52.768;18.262;2023-05-29T07:08:07;7.75;;;3.42;;
59468;SDS011;45277;52.768;18.262;2023-05-29T07:09:38;6.20;;;3.30;;
59468;SDS011;45277;52.768;18.262;2023-05-29T07:11:10;5.93;;;3.00;;
59468;SDS011;45277;52.768;18.262;2023-05-29T07:12:41;9.85;;;3.53;;
59468;SDS011;45277;52.768;18.262;2023-05-29T07:14:13;7.65;;;3.60;;
59468;SDS011;45277;52.768;18.262;2023-05-29T07:15:45;6.47;;;3.30;;
59468;SDS011;45277;52.768;18.262;2023-05-29T07:17:17;5.55;;;3.08;;
59468;SDS011;45277;52.768;18.262;2023-05-29T07:18:48;6.10;;;2.70;;
59468;SDS011;45277;52.768;18.262;2023-05-29T07:20:20;3.88;;;2.78;;
59468;SDS011;45277;52.768;18.262;2023-05-29T07:21:51;8.63;;;2.75;;
59468;SDS011;45277;52.768;18.262;2023-05-29T07:23:23;7.85;;;2.97;;
59468;SDS011;45277;52.768;18.262;2023-05-29T07:24:55;8.27;;;3.13;;
59468;SDS011;45277;52.768;18.262;2023-05-29T07:26:27;7.38;;;3.10;;
59468;SDS011;45277;52.768;18.262;2023-05-29T07:27:58;5.70;;;2.60;;
59468;SDS011;45277;52.768;18.262;2023-05-29T07:29:30;11.38;;;3.90;;
59468;SDS011;45277;52.768;18.262;2023-05-29T07:31:01;7.93;;;3.10;;
59468;SDS011;45277;52.768;18.262;2023-05-29T07:32:32;8.07;;;3.20;;
59468;SDS011;45277;52.768;18.262;2023-05-29T07:34:04;6.03;;;2.78;;
59468;SDS011;45277;52.768;18.262;2023-05-29T07:35:36;12.00;;;3.30;;
59468;SDS011;45277;52.768;18.262;2023-05-29T07:37:08;4.57;;;2.85;;
59468;SDS011;45277;52.768;18.262;2023-05-29T07:38:39;6.97;;;2.90;;
59468;SDS011;45277;52.768;18.262;2023-05-29T07:40:10;5.68;;;2.60;;
59468;SDS011;45277;52.768;18.262;2023-05-29T07:41:42;8.88;;;2.60;;
59468;SDS011;45277;52.768;18.262;2023-05-29T07:43:13;6.05;;;2.85;;
59468;SDS011;45277;52.768;18.262;2023-05-29T07:44:45;8.93;;;2.88;;
59468;SDS011;45277;52.768;18.262;2023-05-29T07:46:16;5.70;;;2.97;;
59468;SDS011;45277;52.768;18.262;2023-05-29T07:47:48;8.75;;;3.17;;
59468;SDS011;45277;52.768;18.262;2023-05-29T07:49:20;5.82;;;2.97;;
59468;SDS011;45277;52.768;18.262;2023-05-29T07:50:52;6.30;;;3.15;;
59468;SDS011;45277;52.768;18.262;2023-05-29T07:52:24;7.72;;;3.25;;
59468;SDS011;45277;52.768;18.262;2023-05-29T07:53:55;8.88;;;3.15;;
59468;SDS011;45277;52.768;18.262;2023-05-29T07:55:26;10.25;;;3.28;;
59468;SDS011;45277;52.768;18.262;2023-05-29T07:56:58;8.15;;;3.28;;
59468;SDS011;45277;52.768;18.262;2023-05-29T07:58:30;10.85;;;2.97;;
59468;SDS011;45277;52.768;18.262;2023-05-29T08:00:02;7.90;;;3.60;;
59468;SDS011;45277;52.768;18.262;2023-05-29T08:01:39;6.60;;;2.70;;
59468;SDS011;45277;52.768;18.262;2023-05-29T08:03:10;7.07;;;3.03;;
59468;SDS011;45277;52.768;18.262;2023-05-29T08:04:42;8.00;;;3.22;;
59468;SDS011;45277;52.768;18.262;2023-05-29T08:06:14;6.68;;;2.90;;
59468;SDS011;45277;52.768;18.262;2023-05-29T08:07:45;8.75;;;3.50;;
59468;SDS011;45277;52.768;18.262;2023-05-29T08:09:18;5.28;;;3.00;;
59468;SDS011;45277;52.768;18.262;2023-05-29T08:10:50;7.90;;;3.03;;
59468;SDS011;45277;52.768;18.262;2023-05-29T08:12:21;6.57;;;3.08;;
59468;SDS011;45277;52.768;18.262;2023-05-29T08:13:53;7.35;;;3.05;;
59468;SDS011;45277;52.768;18.262;2023-05-29T08:15:24;5.95;;;3.03;;
59468;SDS011;45277;52.768;18.262;2023-05-29T08:16:57;6.95;;;3.33;;
59468;SDS011;45277;52.768;18.262;2023-05-29T08:18:30;6.65;;;2.95;;
59468;SDS011;45277;52.768;18.262;2023-05-29T08:20:03;9.07;;;3.30;;
59468;SDS011;45277;52.768;18.262;2023-05-29T08:21:38;6.80;;;2.90;;
59468;SDS011;45277;52.768;18.262;2023-05-29T08:23:10;7.25;;;3.13;;
59468;SDS011;45277;52.768;18.262;2023-05-29T08:24:42;10.32;;;2.90;;
59468;SDS011;45277;52.768;18.262;2023-05-29T08:26:13;9.70;;;3.25;;
59468;SDS011;45277;52.768;18.262;2023-05-29T08:27:45;7.75;;;3.00;;
59468;SDS011;45277;52.768;18.262;2023-05-29T08:29:18;7.93;;;2.88;;
59468;SDS011;45277;52.768;18.262;2023-05-29T08:30:49;6.15;;;3.08;;
59468;SDS011;45277;52.768;18.262;2023-05-29T08:32:21;7.88;;;3.20;;
59468;SDS011;45277;52.768;18.262;2023-05-29T08:33:53;4.43;;;2.67;;
59468;SDS011;45277;52.768;18.262;2023-05-29T08:35:25;6.95;;;3.05;;
59468;SDS011;45277;52.768;18.262;2023-05-29T08:36:56;6.70;;;3.17;;
59468;SDS011;45277;52.768;18.262;2023-05-29T08:38:28;14.07;;;3.28;;
59468;SDS011;45277;52.768;18.262;2023-05-29T08:40:00;8.63;;;3.03;;
59468;SDS011;45277;52.768;18.262;2023-05-29T08:41:51;6.05;;;3.08;;
59468;SDS011;45277;52.768;18.262;2023-05-29T08:43:32;7.00;;;3.20;;
59468;SDS011;45277;52.768;18.262;2023-05-29T08:45:05;8.38;;;3.28;;
59468;SDS011;45277;52.768;18.262;2023-05-29T08:46:39;7.60;;;3.00;;
59468;SDS011;45277;52.768;18.262;2023-05-29T08:48:11;9.90;;;3.45;;
59468;SDS011;45277;52.768;18.262;2023-05-29T08:49:43;5.80;;;2.42;;
59468;SDS011;45277;52.768;18.262;2023-05-29T08:51:21;5.93;;;2.72;;
59468;SDS011;45277;52.768;18.262;2023-05-29T08:53:00;7.00;;;3.23;;
59468;SDS011;45277;52.768;18.262;2023-05-29T08:54:31;6.13;;;2.92;;
59468;SDS011;45277;52.768;18.262;2023-05-29T08:56:03;9.30;;;3.55;;
59468;SDS011;45277;52.768;18.262;2023-05-29T08:57:36;7.68;;;3.10;;
59468;SDS011;45277;52.768;18.262;2023-05-29T08:59:11;7.50;;;3.15;;
59468;SDS011;45277;52.768;18.262;2023-05-29T09:00:46;5.05;;;3.08;;
59468;SDS011;45277;52.768;18.262;2023-05-29T09:02:19;7.78;;;3.33;;
59468;SDS011;45277;52.768;18.262;2023-05-29T09:03:51;5.93;;;3.22;;
59468;SDS011;45277;52.768;18.262;2023-05-29T09:05:22;7.28;;;3.53;;
59468;SDS011;45277;52.768;18.262;2023-05-29T09:06:54;6.93;;;3.05;;
59468;SDS011;45277;52.768;18.262;2023-05-29T09:08:26;10.35;;;3.10;;
59468;SDS011;45277;52.768;18.262;2023-05-29T09:09:58;8.23;;;3.40;;